Time;durP1;ratioP1;P1;durP2;ratioP2;P2;SDS_P1;SDS_P2;PMS_P1;PMS_P2;Temp;Humidity;BMP_temperature;BMP_pressure;BME280_temperature;BME280_humidity;BME280_pressure;Samples;Min_cycle;Max_cycle;Signal;HPM_P1;HPM_P2
2022/05/25 00:02:08;;;;;;;1999.90;999.90;;;;;;;13.75;100.00;93691.84;5097541;28;20187;-60
2022/05/25 00:04:34;;;;;;;1999.90;999.90;;;;;;;13.82;100.00;93699.72;5097598;28;20190;-64
2022/05/25 00:06:59;;;;;;;1999.90;999.90;;;;;;;13.81;100.00;93691.97;5097381;28;20219;-66
2022/05/25 00:09:25;;;;;;;1999.90;999.90;;;;;;;13.82;100.00;93693.47;5097296;28;20273;-62
2022/05/25 00:11:50;;;;;;;1999.90;999.90;;;;;;;13.80;100.00;93693.94;5097449;28;20276;-62
2022/05/25 00:14:15;;;;;;;1999.90;999.90;;;;;;;13.77;100.00;93692.13;5097034;28;20191;-63
2022/05/25 00:16:41;;;;;;;1999.90;999.90;;;;;;;13.76;100.00;93693.34;5097043;28;20298;-63
2022/05/25 00:21:51;;;;;;;1999.90;999.90;;;;;;;13.73;100.00;93683.31;5115620;28;20218;-64
2022/05/25 00:24:16;;;;;;;1999.90;999.90;;;;;;;13.75;100.00;93675.38;5097704;28;20223;-72
2022/05/25 00:26:41;;;;;;;1999.90;999.90;;;;;;;13.81;100.00;93668.03;5096339;28;20191;-66
2022/05/25 00:29:07;;;;;;;1999.90;999.90;;;;;;;13.80;100.00;93668.50;5096342;28;20227;-66
2022/05/25 00:31:33;;;;;;;1999.90;999.90;;;;;;;13.77;100.00;93659.19;5097206;28;20233;-65
2022/05/25 00:33:58;;;;;;;1999.90;999.90;;;;;;;13.79;100.00;93659.50;5097059;28;20219;-66
2022/05/25 00:36:24;;;;;;;1999.90;999.90;;;;;;;13.82;100.00;93655.84;5097493;28;20195;-66
2022/05/25 00:38:49;;;;;;;1999.90;999.90;;;;;;;13.74;100.00;93657.41;5096789;28;20271;-65
2022/05/25 00:41:15;;;;;;;1999.90;999.90;;;;;;;13.76;100.00;93660.44;5097017;28;20197;-66
2022/05/25 00:43:42;;;;;;;1999.90;999.90;;;;;;;13.85;100.00;93668.63;5096801;28;20192;-60
2022/05/25 00:46:12;;;;;;;1999.90;999.90;;;;;;;13.87;100.00;93657.94;5096450;28;20182;-66
2022/05/25 00:48:48;;;;;;;1999.90;999.90;;;;;;;13.93;100.00;93650.59;5097130;28;20187;-66
2022/05/25 00:51:21;;;;;;;1999.90;999.90;;;;;;;13.96;100.00;93646.91;5114549;28;20199;-66
2022/05/25 00:54:22;;;;;;;1999.90;999.90;;;;;;;13.96;100.00;93651.63;5096987;28;20184;-66
2022/05/25 00:56:50;;;;;;;1999.90;999.90;;;;;;;13.94;100.00;93646.59;5096832;28;20321;-67
2022/05/25 00:59:20;;;;;;;1999.90;999.90;;;;;;;13.89;100.00;93641.78;5096973;28;20275;-61
2022/05/25 01:01:46;;;;;;;1999.90;999.90;;;;;;;13.89;100.00;93635.50;5096422;28;20198;-61
2022/05/25 01:04:13;;;;;;;1999.90;999.90;;;;;;;13.85;100.00;93641.19;5096409;28;20183;-62
2022/05/25 01:07:04;;;;;;;1999.90;999.90;;;;;;;13.81;100.00;93634.34;5096313;28;20190;-60
2022/05/25 01:09:40;;;;;;;1999.90;999.90;;;;;;;13.80;100.00;93632.84;5096694;28;20191;-61
2022/05/25 01:12:17;;;;;;;1999.90;999.90;;;;;;;13.78;100.00;93635.28;5096665;28;20207;-60
2022/05/25 01:15:01;;;;;;;1999.90;999.90;;;;;;;13.81;100.00;93639.84;5096314;28;20180;-61
2022/05/25 01:17:46;;;;;;;1999.90;999.90;;;;;;;13.86;100.00;93647.41;5096093;28;20204;-60
2022/05/25 01:20:23;;;;;;;1999.90;999.90;;;;;;;13.91;100.00;93646.78;5096689;28;20186;-59
2022/05/25 01:23:07;;;;;;;1999.90;999.90;;;;;;;13.91;100.00;93647.53;5096522;28;20191;-65
2022/05/25 01:25:47;;;;;;;1999.90;999.90;;;;;;;13.86;100.00;93543.13;5095985;28;20187;-65
2022/05/25 01:28:21;;;;;;;1999.90;999.90;;;;;;;13.86;100.00;93543.91;5096425;28;20198;-67
2022/05/25 01:30:53;;;;;;;1999.90;999.90;;;;;;;13.88;100.00;93541.44;5096222;28;20255;-65
2022/05/25 01:33:49;;;;;;;1999.90;999.90;;;;;;;13.95;100.00;93534.84;5095862;28;20168;-65
2022/05/25 01:36:45;;;;;;;1999.90;999.90;;;;;;;13.89;100.00;93545.72;5073308;28;20217;-64
2022/05/25 01:39:16;;;;;;;1999.90;999.90;;;;;;;13.94;100.00;93547.81;5062350;28;20203;-60
2022/05/25 01:42:07;;;;;;;1999.90;999.90;;;;;;;13.97;100.00;93538.63;5099804;28;20188;-61
2022/05/25 01:44:40;;;;;;;1999.90;999.90;;;;;;;13.96;100.00;93537.13;5099915;28;20196;-60
2022/05/25 01:47:10;;;;;;;1999.90;999.90;;;;;;;13.95;100.00;93540.34;5099890;28;20186;-59
2022/05/25 01:50:01;;;;;;;1999.90;999.90;;;;;;;13.91;100.00;93546.00;5099554;28;20184;-60
2022/05/25 01:52:37;;;;;;;1999.90;999.90;;;;;;;13.89;100.00;93548.47;5099876;28;20248;-60
2022/05/25 01:55:07;;;;;;;1999.90;999.90;;;;;;;13.89;100.00;93550.44;5099452;28;20190;-65
2022/05/25 01:57:37;;;;;;;1999.90;999.90;;;;;;;13.85;100.00;93547.13;5099998;28;20209;-61
2022/05/25 02:00:04;;;;;;;1999.90;999.90;;;;;;;13.84;100.00;93546.34;5099192;28;20183;-62
2022/05/25 02:05:17;;;;;;;1999.90;999.90;;;;;;;13.76;100.00;93555.44;5117482;28;20190;-62
2022/05/25 02:07:42;;;;;;;1999.90;999.90;;;;;;;13.83;100.00;93561.31;5099570;28;20218;-62
2022/05/25 02:10:44;;;;;;;1999.90;999.90;;;;;;;13.86;100.00;93560.38;5099212;28;20207;-61
2022/05/25 02:13:19;;;;;;;1999.90;999.90;;;;;;;13.88;100.00;93557.16;5099523;28;20191;-59
2022/05/25 02:16:11;;;;;;;1999.90;999.90;;;;;;;13.89;100.00;93551.22;5099570;28;20195;-62
2022/05/25 02:18:45;;;;;;;1999.90;999.90;;;;;;;13.85;100.00;93552.59;5099747;28;20180;-62
2022/05/25 02:21:28;;;;;;;1999.90;999.90;;;;;;;13.82;100.00;93562.53;5099376;28;20233;-62
2022/05/25 02:24:00;;;;;;;1999.90;999.90;;;;;;;13.85;100.00;93580.81;5117149;28;20183;-63
2022/05/25 02:26:41;;;;;;;1999.90;999.90;;;;;;;13.81;100.00;93591.22;5098847;28;20179;-63
2022/05/25 02:29:30;;;;;;;1999.90;999.90;;;;;;;13.97;100.00;93577.06;5099430;28;20192;-63
2022/05/25 02:32:16;;;;;;;1999.90;999.90;;;;;;;14.07;100.00;93581.25;5088034;28;20223;-63
2022/05/25 02:34:45;;;;;;;1999.90;999.90;;;;;;;14.15;100.00;93585.16;5099390;28;20184;-65
2022/05/25 02:37:12;;;;;;;1999.90;999.90;;;;;;;14.01;100.00;93588.63;5098804;28;20198;-63
2022/05/25 02:39:37;;;;;;;1999.90;999.90;;;;;;;13.91;100.00;93591.91;5098630;28;20219;-62
2022/05/25 02:42:13;;;;;;;1999.90;999.90;;;;;;;13.91;100.00;93587.16;5099125;28;20226;-62
2022/05/25 02:44:38;;;;;;;1999.90;999.90;;;;;;;13.93;100.00;93603.94;5098645;28;20183;-62
2022/05/25 02:47:04;;;;;;;1999.90;999.90;;;;;;;13.98;100.00;93600.53;5116785;28;20204;-62
2022/05/25 02:49:29;;;;;;;1999.90;999.90;;;;;;;13.96;100.00;93608.50;5098660;28;20199;-64
2022/05/25 02:51:54;;;;;;;1999.90;999.90;;;;;;;13.93;100.00;93609.41;5097527;28;20200;-62
2022/05/25 02:54:22;;;;;;;1999.90;999.90;;;;;;;13.90;100.00;93618.56;5098421;28;20270;-61
2022/05/25 02:56:48;;;;;;;1999.90;999.90;;;;;;;13.87;100.00;93622.25;5098477;28;20195;-61
2022/05/25 02:59:14;;;;;;;1999.90;999.90;;;;;;;13.93;100.00;93636.88;5098392;28;20205;-61
2022/05/25 03:01:39;;;;;;;1999.90;999.90;;;;;;;13.94;100.00;93627.38;5098488;28;20252;-63
2022/05/25 03:04:04;;;;;;;1999.90;999.90;;;;;;;13.95;100.00;93631.66;5098421;28;20225;-61
2022/05/25 03:06:31;;;;;;;1999.90;999.90;;;;;;;13.95;100.00;93639.88;5098178;28;20190;-60
2022/05/25 03:08:56;;;;;;;1999.90;999.90;;;;;;;13.97;100.00;93629.22;5098271;28;20215;-69
2022/05/25 03:11:22;;;;;;;1999.90;999.90;;;;;;;13.98;100.00;93627.97;5097944;28;20216;-60
2022/05/25 03:13:48;;;;;;;1999.90;999.90;;;;;;;13.99;100.00;93626.75;5098160;28;20256;-59
2022/05/25 03:16:16;;;;;;;1999.90;999.90;;;;;;;14.00;100.00;93631.03;5098016;28;20184;-59
2022/05/25 03:18:43;;;;;;;1999.90;999.90;;;;;;;13.98;100.00;93625.22;5098510;28;20188;-60
2022/05/25 03:21:08;;;;;;;1999.90;999.90;;;;;;;13.99;100.00;93637.72;5097795;28;20194;-60
2022/05/25 03:23:35;;;;;;;1999.90;999.90;;;;;;;13.99;100.00;93636.97;5098123;28;20176;-60
2022/05/25 03:26:00;;;;;;;1999.90;999.90;;;;;;;14.00;100.00;93636.50;5098069;28;20196;-62
2022/05/25 03:28:25;;;;;;;1999.90;999.90;;;;;;;14.03;100.00;93634.81;5098663;28;20206;-60
2022/05/25 03:30:51;;;;;;;1999.90;999.90;;;;;;;14.01;100.00;93638.03;5098163;28;20207;-62
2022/05/25 03:33:16;;;;;;;1999.90;999.90;;;;;;;13.96;100.00;93646.91;5097653;28;20206;-61
2022/05/25 03:35:43;;;;;;;1999.90;999.90;;;;;;;13.94;100.00;93643.84;5098191;28;20198;-60
2022/05/25 03:38:09;;;;;;;1999.90;999.90;;;;;;;13.95;100.00;93644.63;5098066;28;20256;-60
2022/05/25 03:40:35;;;;;;;1999.90;999.90;;;;;;;13.94;100.00;93626.63;5097905;28;20190;-59
2022/05/25 03:43:00;;;;;;;1999.90;999.90;;;;;;;14.00;100.00;93624.75;5097801;28;20187;-63
2022/05/25 03:45:26;;;;;;;1999.90;999.90;;;;;;;14.03;100.00;93624.59;5098124;28;20251;-64
2022/05/25 03:47:52;;;;;;;1999.90;999.90;;;;;;;14.05;100.00;93627.63;5097771;28;20274;-73
2022/05/25 03:50:23;;;;;;;1999.90;999.90;;;;;;;14.04;100.00;93631.59;5098023;28;20235;-68
2022/05/25 03:52:48;;;;;;;1999.90;999.90;;;;;;;14.05;100.00;93635.09;5098302;28;20255;-68
2022/05/25 03:55:13;;;;;;;1999.90;999.90;;;;;;;14.06;100.00;93640.13;5097485;28;20188;-69
2022/05/25 03:57:39;;;;;;;1999.90;999.90;;;;;;;14.12;100.00;93643.75;5097352;28;20272;-68
2022/05/25 04:00:06;;;;;;;1999.90;999.90;;;;;;;14.14;100.00;93641.28;5097946;28;20192;-64
2022/05/25 04:02:31;;;;;;;1999.90;999.90;;;;;;;14.17;100.00;93640.34;5097164;28;20195;-65
2022/05/25 04:05:08;;;;;;;1999.90;999.90;;;;;;;14.18;100.00;93647.38;5097235;28;20186;-61
2022/05/25 04:07:42;;;;;;;1999.90;999.90;;;;;;;14.18;100.00;93663.84;5097435;28;20183;-65
2022/05/25 04:10:12;;;;;;;1999.90;999.90;;;;;;;14.18;100.00;93663.84;5097362;28;20229;-66
2022/05/25 04:12:40;;;;;;;1999.90;999.90;;;;;;;14.22;100.00;93658.97;5097321;28;20232;-65
2022/05/25 04:15:07;;;;;;;1999.90;999.90;;;;;;;14.17;100.00;93667.06;5097575;28;20179;-67
2022/05/25 04:17:33;;;;;;;1999.90;999.90;;;;;;;14.21;100.00;93668.41;5096845;28;20290;-67
2022/05/25 04:19:58;;;;;;;1999.90;999.90;;;;;;;14.27;100.00;93666.53;5097201;28;20260;-66
2022/05/25 04:22:24;;;;;;;1999.90;999.90;;;;;;;14.19;100.00;93670.84;5097008;28;20191;-73
2022/05/25 04:24:49;;;;;;;1999.90;999.90;;;;;;;14.11;100.00;93680.66;5097074;28;20191;-65
2022/05/25 04:27:15;;;;;;;1999.90;999.90;;;;;;;14.19;100.00;93676.34;5097226;28;20184;-65
2022/05/25 04:29:40;;;;;;;1999.90;999.90;;;;;;;14.14;100.00;93685.22;5097294;28;20195;-65
2022/05/25 04:32:09;;;;;;;1999.90;999.90;;;;;;;14.19;100.00;93679.06;5096718;28;20222;-65
2022/05/25 04:34:34;;;;;;;1999.90;999.90;;;;;;;14.26;100.00;93680.72;5096885;28;20184;-63
2022/05/25 04:37:48;;;;;;;1999.90;999.90;;;;;;;14.31;100.00;93680.84;5096836;28;20418;-65
2022/05/25 04:39:45;;;;;;;1999.90;999.90;;;;;;;14.32;100.00;93685.13;5114657;28;20202;-62
2022/05/25 04:42:10;;;;;;;1999.90;999.90;;;;;;;14.34;100.00;93682.66;5096693;28;20195;-64
2022/05/25 04:44:36;;;;;;;1999.90;999.90;;;;;;;14.36;100.00;93690.44;5097351;28;20190;-61
2022/05/25 04:47:01;;;;;;;1999.90;999.90;;;;;;;14.26;100.00;93708.97;5096565;28;20195;-61
2022/05/25 04:49:26;;;;;;;1999.90;999.90;;;;;;;14.22;100.00;93708.38;5096646;28;20216;-62
2022/05/25 04:51:52;;;;;;;1999.90;999.90;;;;;;;14.25;100.00;93723.94;5096538;28;20215;-62
2022/05/25 04:54:17;;;;;;;1999.90;999.90;;;;;;;14.19;100.00;93723.00;5096581;28;20180;-60
2022/05/25 04:59:26;;;;;;;1999.90;999.90;;;;;;;14.18;100.00;93727.00;5115210;28;20263;-67
2022/05/25 05:01:52;;;;;;;1999.90;999.90;;;;;;;14.21;100.00;93728.81;5096623;28;20227;-72
2022/05/25 05:04:17;;;;;;;1999.90;999.90;;;;;;;14.18;100.00;93743.47;5096434;28;20180;-71
2022/05/25 05:06:44;;;;;;;1999.90;999.90;;;;;;;14.17;100.00;93735.69;5096498;28;20202;-71
2022/05/25 05:09:10;;;;;;;1999.90;999.90;;;;;;;14.20;100.00;93743.00;5096435;28;20183;-71
2022/05/25 05:11:37;;;;;;;1999.90;999.90;;;;;;;13.99;100.00;93747.50;5096525;28;20203;-71
2022/05/25 05:14:03;;;;;;;1999.90;999.90;;;;;;;13.95;100.00;93755.16;5096023;28;20192;-71
2022/05/25 05:16:28;;;;;;;1999.90;999.90;;;;;;;13.97;100.00;93766.44;5096347;28;20196;-64
2022/05/25 05:18:53;;;;;;;1999.90;999.90;;;;;;;13.90;100.00;93768.75;5096268;28;20188;-63
2022/05/25 05:21:19;;;;;;;1999.90;999.90;;;;;;;13.91;100.00;93776.50;5096144;28;20332;-59
2022/05/25 05:23:44;;;;;;;1999.90;999.90;;;;;;;13.99;100.00;93782.44;5096531;28;20190;-59
2022/05/25 05:26:10;;;;;;;1999.90;999.90;;;;;;;14.05;100.00;93781.34;5096231;28;20226;-59
2022/05/25 05:28:39;;;;;;;1999.90;999.90;;;;;;;14.10;100.00;93788.97;5096040;28;20194;-59
2022/05/25 05:31:05;;;;;;;1999.90;999.90;;;;;;;14.14;100.00;93792.28;5095794;28;20208;-60
2022/05/25 05:33:31;;;;;;;1999.90;999.90;;;;;;;14.07;100.00;93803.59;5096140;28;20301;-59
2022/05/25 05:36:01;;;;;;;1999.90;999.90;;;;;;;14.07;100.00;93806.34;5095825;28;20236;-62
2022/05/25 05:38:27;;;;;;;1999.90;999.90;;;;;;;14.06;100.00;93817.78;5096428;28;20214;-59
2022/05/25 05:40:53;;;;;;;1999.90;999.90;;;;;;;14.20;100.00;93812.38;5096208;28;20266;-59
2022/05/25 05:43:19;;;;;;;1999.90;999.90;;;;;;;14.15;100.00;93813.03;5095854;28;20286;-59
2022/05/25 05:45:46;;;;;;;1999.90;999.90;;;;;;;14.06;100.00;93826.78;5095874;28;20282;-59
2022/05/25 05:48:16;;;;;;;1999.90;999.90;;;;;;;14.16;100.00;93825.53;5096000;28;20206;-59
2022/05/25 05:50:42;;;;;;;1999.90;999.90;;;;;;;14.18;100.00;93828.56;5095381;28;20269;-58
2022/05/25 05:53:11;;;;;;;1999.90;999.90;;;;;;;14.07;100.00;93844.78;5095694;28;20204;-62
2022/05/25 05:55:39;;;;;;;1999.90;999.90;;;;;;;14.14;100.00;93833.47;5096040;28;20244;-61
2022/05/25 05:58:04;;;;;;;1999.90;999.90;;;;;;;14.12;100.00;93835.91;5095432;28;20209;-63
2022/05/25 06:00:30;;;;;;;1999.90;999.90;;;;;;;14.08;100.00;93846.31;5095517;28;20195;-62
2022/05/25 06:02:55;;;;;;;1999.90;999.90;;;;;;;14.13;100.00;93848.41;5095532;28;20192;-59
2022/05/25 06:05:21;;;;;;;1999.90;999.90;;;;;;;14.12;100.00;93849.63;5095412;28;20198;-58
2022/05/25 06:07:46;;;;;;;1999.90;999.90;;;;;;;13.97;100.00;93862.50;5095183;28;20206;-57
2022/05/25 06:10:11;;;;;;;1999.90;999.90;;;;;;;13.90;100.00;93868.31;5095540;28;20183;-59
2022/05/25 06:12:37;;;;;;;1999.90;999.90;;;;;;;13.90;100.00;93870.28;5095583;28;20180;-59
2022/05/25 06:19:25;;;;;;;1999.90;999.90;;;;;;;13.98;100.00;93869.50;5095736;28;20267;-64
2022/05/25 06:20:35;;;;;;;1999.90;999.90;;;;;;;14.03;100.00;93871.66;5114338;28;20190;-65
2022/05/25 06:23:01;;;;;;;1999.90;999.90;;;;;;;13.91;100.00;93886.28;5095546;28;20179;-68
2022/05/25 06:25:28;;;;;;;1999.90;999.90;;;;;;;13.94;100.00;93893.59;5096243;28;20263;-64
2022/05/25 06:27:53;;;;;;;1999.90;999.90;;;;;;;13.78;100.00;93893.97;5098847;28;20224;-62
2022/05/25 06:30:19;;;;;;;1999.90;999.90;;;;;;;13.85;100.00;93907.38;5098821;28;20356;-57
2022/05/25 06:32:44;;;;;;;1999.90;999.90;;;;;;;13.95;100.00;93897.88;5098476;28;20212;-61
2022/05/25 06:35:10;;;;;;;1999.90;999.90;;;;;;;14.13;100.00;93889.59;5099201;28;20188;-61
2022/05/25 06:37:36;;;;;;;1999.90;999.90;;;;;;;14.28;100.00;93889.72;5099178;28;20180;-61
2022/05/25 06:40:02;;;;;;;1999.90;999.90;;;;;;;14.23;100.00;93899.34;5098449;28;20223;-64
2022/05/25 06:42:28;;;;;;;1999.90;999.90;;;;;;;14.33;100.00;93906.34;5098863;28;20184;-61
2022/05/25 06:44:54;;;;;;;1999.90;999.90;;;;;;;14.40;100.00;93910.75;5099073;28;20217;-60
2022/05/25 06:47:19;;;;;;;1999.90;999.90;;;;;;;14.35;100.00;93909.38;5098489;28;20248;-61
2022/05/25 06:49:45;;;;;;;1999.90;999.90;;;;;;;14.40;100.00;93925.25;5098464;28;20187;-61
2022/05/25 06:52:13;;;;;;;1999.90;999.90;;;;;;;14.41;100.00;93926.75;5097961;28;20231;-63
2022/05/25 06:54:39;;;;;;;1999.90;999.90;;;;;;;14.45;100.00;93934.81;5098714;28;20227;-61
2022/05/25 06:57:05;;;;;;;1999.90;999.90;;;;;;;14.46;100.00;93930.88;5098448;28;20187;-63
2022/05/25 06:59:30;;;;;;;1999.90;999.90;;;;;;;14.49;100.00;93925.19;5098414;28;20203;-63
2022/05/25 07:01:56;;;;;;;1999.90;999.90;;;;;;;14.49;100.00;93930.69;5098623;28;20180;-62
2022/05/25 07:04:21;;;;;;;1999.90;999.90;;;;;;;14.58;100.00;93933.41;5098284;28;20188;-63
2022/05/25 07:06:47;;;;;;;1999.90;999.90;;;;;;;14.50;100.00;93936.97;5098479;28;20187;-54
2022/05/25 07:09:13;;;;;;;1999.90;999.90;;;;;;;14.34;100.00;93946.31;5098408;28;20184;-56
2022/05/25 07:11:39;;;;;;;1999.90;999.90;;;;;;;14.25;100.00;93954.59;5097995;28;20223;-61
2022/05/25 07:14:05;;;;;;;1999.90;999.90;;;;;;;14.00;100.00;93965.88;5098671;28;20187;-60
2022/05/25 07:16:34;;;;;;;1999.90;999.90;;;;;;;14.03;100.00;93964.97;5097617;28;20230;-61
2022/05/25 07:18:59;;;;;;;1999.90;999.90;;;;;;;13.95;100.00;93979.47;5098674;28;20223;-61
2022/05/25 07:21:27;;;;;;;1999.90;999.90;;;;;;;13.95;100.00;93985.69;5098160;28;20226;-61
2022/05/25 07:23:55;;;;;;;1999.90;999.90;;;;;;;13.97;100.00;93980.53;5116178;28;20195;-60
2022/05/25 07:26:22;;;;;;;1999.90;999.90;;;;;;;13.99;100.00;93983.56;5098164;28;20203;-59
2022/05/25 07:28:48;;;;;;;1999.90;999.90;;;;;;;14.10;100.00;93970.16;5098422;28;20241;-59
2022/05/25 07:31:19;;;;;;;1999.90;999.90;;;;;;;14.17;100.00;93964.31;5098602;28;20199;-58
2022/05/25 07:33:48;;;;;;;1999.90;999.90;;;;;;;14.40;100.00;93965.66;5098309;28;20267;-59
2022/05/25 07:36:14;;;;;;;1999.90;999.90;;;;;;;14.66;100.00;93948.34;5097810;28;20207;-60
2022/05/25 07:38:46;;;;;;;1999.90;999.90;;;;;;;14.75;100.00;93942.78;5097541;28;20207;-60
2022/05/25 07:41:12;;;;;;;1999.90;999.90;;;;;;;14.98;100.00;93939.34;5098176;28;20180;-60
2022/05/25 07:43:39;;;;;;;1999.90;999.90;;;;;;;15.06;100.00;93946.00;5097816;28;20206;-53
2022/05/25 07:46:04;;;;;;;1999.90;999.90;;;;;;;15.03;100.00;93951.66;5097988;28;20179;-58
2022/05/25 07:48:30;;;;;;;1999.90;999.90;;;;;;;14.85;100.00;93963.53;5097663;28;20224;-53
2022/05/25 07:50:55;;;;;;;1999.90;999.90;;;;;;;14.88;100.00;93961.81;5097496;28;20248;-55
2022/05/25 07:56:05;;;;;;;1999.90;999.90;;;;;;;14.89;100.00;93957.84;5115959;28;20324;-55
2022/05/25 07:58:31;;;;;;;1999.90;999.90;;;;;;;14.81;100.00;93960.19;5098100;28;20221;-53
2022/05/25 08:01:01;;;;;;;1999.90;999.90;;;;;;;14.86;100.00;93959.53;5097570;28;20191;-55
2022/05/25 08:06:10;;;;;;;1999.90;999.90;;;;;;;14.72;100.00;93971.19;5116032;28;20198;-64
2022/05/25 08:08:36;;;;;;;1999.90;999.90;;;;;;;14.83;100.00;93965.22;5097393;28;20176;-64
2022/05/25 08:11:07;;;;;;;1999.90;999.90;;;;;;;14.98;100.00;93955.06;5097442;28;20261;-65
2022/05/25 08:13:35;;;;;;;1999.90;999.90;;;;;;;15.09;100.00;93949.81;5097685;28;20184;-64
2022/05/25 08:16:02;;;;;;;1999.90;999.90;;;;;;;14.98;100.00;93966.81;5097452;28;20195;-64
2022/05/25 08:18:27;;;;;;;1999.90;999.90;;;;;;;15.21;100.00;93946.81;5097791;28;20206;-63
2022/05/25 08:20:52;;;;;;;1999.90;999.90;;;;;;;15.32;100.00;93938.81;5096972;28;20187;-59
2022/05/25 08:23:18;;;;;;;1999.90;999.90;;;;;;;15.61;100.00;93916.91;5097231;28;20211;-53
2022/05/25 08:25:44;;;;;;;1999.90;999.90;;;;;;;15.59;100.00;93902.84;5096804;28;20256;-53
2022/05/25 08:28:10;;;;;;;1999.90;999.90;;;;;;;15.69;100.00;93915.31;5096743;28;20186;-53
2022/05/25 08:30:38;;;;;;;1999.90;999.90;;;;;;;16.05;100.00;93892.94;5096377;28;20208;-57
2022/05/25 08:33:03;;;;;;;1999.90;999.90;;;;;;;16.24;100.00;93891.50;5096772;28;20187;-55
2022/05/25 08:35:30;;;;;;;1999.90;999.90;;;;;;;16.46;100.00;93887.63;5096626;28;20192;-57
2022/05/25 08:37:57;;;;;;;1999.90;999.90;;;;;;;16.69;100.00;93883.97;5097106;28;20188;-57
2022/05/25 08:40:24;;;;;;;1999.90;999.90;;;;;;;16.48;100.00;93891.44;5115126;28;20194;-58
2022/05/25 08:43:00;;;;;;;1999.90;999.90;;;;;;;16.23;100.00;93920.31;5096871;28;20183;-71
2022/05/25 08:45:33;;;;;;;1999.90;999.90;;;;;;;16.10;100.00;93928.09;5097371;28;20175;-73
2022/05/25 08:48:00;;;;;;;1999.90;999.90;;;;;;;16.26;100.00;93922.13;5096563;28;20278;-71
2022/05/25 08:50:28;;;;;;;1999.90;999.90;;;;;;;16.16;100.00;93948.22;5096683;28;20214;-72
2022/05/25 08:52:58;;;;;;;1999.90;999.90;;;;;;;16.21;100.00;93944.81;5096950;28;20184;-71
2022/05/25 08:55:31;;;;;;;1999.90;999.90;;;;;;;16.62;100.00;93923.72;5096725;28;20187;-68
2022/05/25 08:57:59;;;;;;;1999.90;999.90;;;;;;;16.59;100.00;93940.44;5096799;28;20191;-60
2022/05/25 09:00:24;;;;;;;1999.90;999.90;;;;;;;16.42;100.00;93969.75;5097007;28;20184;-64
2022/05/25 09:02:56;;;;;;;1999.90;999.90;;;;;;;16.39;100.00;93985.19;5096477;28;20190;-61
2022/05/25 09:05:36;;;;;;;1999.90;999.90;;;;;;;16.68;100.00;93973.44;5096724;28;20183;-62
2022/05/25 09:08:25;;;;;;;1999.90;999.90;;;;;;;16.67;100.00;93980.19;5096942;28;20187;-62
2022/05/25 09:11:02;;;;;;;1999.90;999.90;;;;;;;16.79;100.00;93976.38;5096125;28;20200;-62
2022/05/25 09:13:53;;;;;;;1999.90;999.90;;;;;;;16.87;100.00;93994.81;5114281;28;20190;-62
2022/05/25 09:16:23;;;;;;;1999.90;999.90;;;;;;;16.72;100.00;94023.63;5096145;28;20194;-63
2022/05/25 09:19:00;;;;;;;1999.90;999.90;;;;;;;17.38;100.00;93973.00;5096427;28;20290;-63
2022/05/25 09:21:36;;;;;;;1999.90;999.90;;;;;;;17.36;100.00;93991.25;5096798;28;20176;-62
2022/05/25 09:24:08;;;;;;;1999.90;999.90;;;;;;;17.47;100.00;94019.03;5096662;28;20199;-63
2022/05/25 09:26:33;;;;;;;1999.90;999.90;;;;;;;17.79;100.00;94017.97;5095944;28;20195;-63
2022/05/25 09:29:03;;;;;;;1999.90;999.90;;;;;;;18.26;100.00;93995.44;5096407;28;20187;-62
2022/05/25 09:31:34;;;;;;;1999.90;999.90;;;;;;;18.26;100.00;94023.06;5096000;28;20207;-63
2022/05/25 09:34:10;;;;;;;1999.90;999.90;;;;;;;18.32;100.00;94076.44;5096508;28;20184;-63
2022/05/25 09:36:48;;;;;;;1999.90;999.90;;;;;;;18.44;100.00;94055.97;5096381;28;20183;-71
2022/05/25 09:39:23;;;;;;;1999.90;999.90;;;;;;;18.36;100.00;94077.75;5095963;28;20187;-69
2022/05/25 09:41:54;;;;;;;1999.90;999.90;;;;;;;18.23;100.00;94087.59;5096542;28;20184;-69
2022/05/25 09:44:19;;;;;;;1999.90;999.90;;;;;;;17.97;100.00;94139.25;5096650;28;20303;-70
2022/05/25 09:46:58;;;;;;;1999.90;999.90;;;;;;;18.05;100.00;94115.50;5095716;28;20236;-71
2022/05/25 09:49:29;;;;;;;1999.90;999.90;;;;;;;17.80;100.00;94130.75;5096340;28;20219;-70
2022/05/25 09:51:55;;;;;;;1999.90;999.90;;;;;;;17.79;100.00;94128.47;5113513;28;20211;-59
2022/05/25 09:54:29;;;;;;;1999.90;999.90;;;;;;;17.88;100.00;94125.59;5095847;28;20191;-58
2022/05/25 09:57:02;;;;;;;1999.90;999.90;;;;;;;17.98;100.00;94124.19;5095996;28;20186;-60
2022/05/25 09:59:39;;;;;;;1999.90;999.90;;;;;;;17.99;100.00;94137.53;5096441;28;20192;-61
2022/05/25 10:02:23;;;;;;;1999.90;999.90;;;;;;;18.52;100.00;94096.53;5099761;28;20180;-62
2022/05/25 10:04:54;;;;;;;1999.90;999.90;;;;;;;18.82;100.00;94108.16;5099851;28;20226;-61
2022/05/25 10:07:36;;;;;;;1999.90;999.90;;;;;;;18.90;100.00;94167.34;5099717;28;20240;-60
2022/05/25 10:10:06;;;;;;;1999.90;999.90;;;;;;;18.98;100.00;94298.53;5099245;28;20183;-58
2022/05/25 10:12:33;;;;;;;1999.90;999.90;;;;;;;19.19;100.00;94364.50;5099285;28;20196;-66
2022/05/25 10:15:09;;;;;;;1999.90;999.90;;;;;;;19.57;100.00;94377.34;5099280;28;20183;-55
2022/05/25 10:17:39;;;;;;;1999.90;999.90;;;;;;;19.75;100.00;94381.81;5098978;28;20238;-55
2022/05/25 10:20:45;;;;;;;1999.90;999.90;;;;;;;20.22;100.00;94393.19;5099392;28;20184;-55
2022/05/25 10:23:12;;;;;;;1999.90;999.90;;;;;;;20.66;100.00;94415.78;5098797;28;20184;-52
2022/05/25 10:25:45;;;;;;;1999.90;999.90;;;;;;;20.59;100.00;94495.91;5099191;28;20176;-56
2022/05/25 10:28:48;;;;;;;1999.90;999.90;;;;;;;20.79;100.00;94477.19;5098937;28;20192;-57
2022/05/25 10:37:08;;;;;;;1999.90;999.90;;;;;;;20.98;100.00;94597.78;5117405;28;20203;-66
2022/05/25 10:39:36;;;;;;;1999.90;999.90;;;;;;;20.38;100.00;94639.44;5098656;28;20195;-66
2022/05/25 10:42:26;;;;;;;1999.90;999.90;;;;;;;19.87;100.00;94650.28;5098588;28;20213;-66
2022/05/25 10:45:06;;;;;;;1999.90;999.90;;;;;;;20.19;100.00;94582.72;5099334;28;20196;-67
2022/05/25 10:47:50;;;;;;;1999.90;999.90;;;;;;;20.11;100.00;94614.91;5098428;28;20191;-63
2022/05/25 10:50:22;;;;;;;1999.90;999.90;;;;;;;20.10;100.00;94654.94;5099412;28;20232;-63
2022/05/25 10:53:01;;;;;;;1999.90;999.90;;;;;;;20.16;100.00;94697.38;5099174;28;20210;-64
2022/05/25 10:55:34;;;;;;;1999.90;999.90;;;;;;;20.23;100.00;94724.72;5098842;28;20188;-67
2022/05/25 10:58:09;;;;;;;1999.90;999.90;;;;;;;20.55;100.00;94732.00;5098715;28;20188;-65
2022/05/25 11:00:45;;;;;;;1999.90;999.90;;;;;;;20.73;100.00;94776.16;5098913;28;20194;-63
2022/05/25 11:03:47;;;;;;;1999.90;999.90;;;;;;;21.09;100.00;94813.78;5098855;28;20240;-64
2022/05/25 11:06:43;;;;;;;1999.90;999.90;;;;;;;21.22;100.00;94881.63;5098795;28;20187;-67
2022/05/25 11:09:24;;;;;;;1999.90;999.90;;;;;;;21.79;100.00;94892.97;5098631;28;20275;-66
2022/05/25 11:12:26;;;;;;;1999.90;999.90;;;;;;;21.95;100.00;94948.03;5096105;28;20244;-69
2022/05/25 11:15:10;;;;;;;1999.90;999.90;;;;;;;22.48;100.00;94965.84;5098173;28;20187;-71
2022/05/25 11:18:21;;;;;;;1999.90;999.90;;;;;;;22.21;100.00;95030.28;5116004;28;20199;-72
2022/05/25 11:21:02;;;;;;;1999.90;999.90;;;;;;;21.61;100.00;95037.78;5098620;28;20193;-68
2022/05/25 11:23:52;;;;;;;1999.90;999.90;;;;;;;21.27;100.00;95069.84;5098528;28;20302;-69
2022/05/25 11:26:41;;;;;;;1999.90;999.90;;;;;;;21.13;100.00;95069.88;5098092;28;20202;-69